首页
METAR-TAF:

METAR-TAF

机场 :

巴馬科國際機場

巴馬科, 马里共和国

纬度: 12-32N, 经度: 007-57W, 海拔: 380米

当前天气观测

该预报发布于42分钟前的19:30 UTC
风速1节,风向
温度 28°C
湿度 84%
气压 1013 hPa
能见度10公里或以上
1500米以下无云,无积雨云

METAR: GABS 251930Z 19001KT CAVOK 28/25 Q1013 NOSIG

时间: 20:12 (20:12 UTC)

预报

该预报发布于3小时和12分钟前的17:00 UTC
预报有效从25日的 18点(UTC)到 26日的 24点(UTC)
风速8节,风向南转西南
能见度10公里或以上
少量云层高于3000英尺
几率 40% :
短暂存在
从 25日的 20点(UTC)到 25日的 24点(UTC)
能見度: 4000
少量云层高于3000英尺
少量云层高于3500英尺, 积雨云.
雷暴, 雨
成为
从 26日的 03点(UTC)到 26日的 07点(UTC)
风速10节,风向西
几率 40% :
短暂存在
从 26日的 05点(UTC)到 26日的 07点(UTC)
能見度: 4000
少量云层高于3000英尺
少量云层高于3500英尺, 积雨云.
雷暴, 雨
几率 40% :
短暂存在
从 26日的 20点(UTC)到 26日的 24点(UTC)
风速20节,风向东转东北,有时为35节阵风
能見度: 4000
散云层高于3000英尺
少量云层高于3500英尺, 积雨云.
雷暴, 雨

TAF: GABS 251700Z 2518/2624 20008KT 9999 FEW030 PROB40 TEMPO 2520/2524 4000 TSRA FEW030 FEW035CB BECMG 2603/2607 28010KT PROB40 TEMPO 2605/2607 4000 TSRA FEW030 FEW035CB PROB40 TEMPO 2620/2624 06020G35KT 4000 TSRA SCT030 FEW035CB

超过4000个机场的气象观测和天气预报(METAR&TAF报告)。

可查询的气象台以黄色和红色小点在地图上表示。

将鼠标移到小点上方,可查看气象台名称。

然后点击查看天气观测和预报。

如需切换地图:点击带黑十字的绿色按钮放大地图;点击带横线的绿色按钮缩小地图;或者点击绿色箭头查看邻近地区的地图。


METAR-TAF: